Time,TemperatureF,DewpointF,PressureIn,WindDirection,WindDirectionDegrees,WindSpeedMPH,WindSpeedGustMPH,Humidity,HourlyPrecipIn,Conditions,Clouds,dailyrainin,SoftwareType,DateUTC
2013-07-30 00:07:00,61.2,52.1,29.32,NNW,338,0.0,0.0,72,0.00,,,0.00,WSDL version 420,2013-07-30 04:07:00,
2013-07-30 00:08:00,61.2,52.1,-100.00,NNW,338,0.0,0.0,72,0.00,,,0.00,WSDL version 420,2013-07-30 04:08:00,
2013-07-30 00:10:00,61.2,52.1,29.35,NNW,338,0.0,0.0,72,0.00,,,0.00,WSDL version 420,2013-07-30 04:10:00,
2013-07-30 00:12:00,61.1,52.0,29.35,NNW,338,0.0,0.0,72,0.00,,,0.00,WSDL version 420,2013-07-30 04:12:00,
2013-07-30 00:20:00,61.0,51.9,29.35,North,0,0.0,0.0,72,0.00,,,0.00,WSDL version 420,2013-07-30 04:20:00,
2013-07-30 00:27:00,60.8,51.9,-100.00,SSW,203,0.0,0.0,73,0.00,,,0.00,WSDL version 420,2013-07-30 04:27:00,
2013-07-30 00:32:00,61.0,52.3,29.32,SW,225,0.0,0.0,73,0.00,,,0.00,WSDL version 420,2013-07-30 04:32:00,
2013-07-30 00:41:00,61.0,52.3,29.32,North,0,0.0,0.0,73,-99.99,,,-99.99,WSDL version 420,2013-07-30 04:41:00,
2013-07-30 00:46:00,61.2,52.4,29.32,SW,225,0.0,0.0,73,0.00,,,0.00,WSDL version 420,2013-07-30 04:46:00,
2013-07-30 00:52:00,61.0,52.3,29.32,SW,225,0.0,0.0,73,-99.99,,,-99.99,WSDL version 420,2013-07-30 04:52:00,
2013-07-30 00:58:00,60.9,52.2,29.35,SW,225,0.0,0.0,73,-99.99,,,-99.99,WSDL version 420,2013-07-30 04:58:00,
2013-07-30 01:04:00,60.6,52.3,29.35,SW,225,0.0,0.0,74,0.00,,,0.00,WSDL version 420,2013-07-30 05:04:00,
2013-07-30 01:09:00,60.5,52.4,29.35,SW,225,0.0,0.0,75,-99.99,,,-99.99,WSDL version 420,2013-07-30 05:09:00,
2013-07-30 01:16:00,60.4,52.5,-100.00,North,0,0.0,0.0,75,0.00,,,0.00,WSDL version 420,2013-07-30 05:16:00,
2013-07-30 01:23:00,60.3,52.7,29.35,SW,225,0.0,0.0,76,0.00,,,0.00,WSDL version 420,2013-07-30 05:23:00,
2013-07-30 01:29:00,60.0,52.8,29.35,SW,225,0.0,0.0,77,0.00,,,0.00,WSDL version 420,2013-07-30 05:29:00,
2013-07-30 01:35:00,59.8,52.8,29.35,SW,225,0.0,0.0,78,0.00,,,0.00,WSDL version 420,2013-07-30 05:35:00,
2013-07-30 01:41:00,59.5,52.5,29.35,SW,225,0.0,0.0,78,0.00,,,0.00,WSDL version 420,2013-07-30 05:41:00,
2013-07-30 01:49:00,59.4,52.7,29.35,SW,225,0.0,0.0,79,0.00,,,0.00,WSDL version 420,2013-07-30 05:49:00,
2013-07-30 01:55:00,59.3,52.9,29.35,SW,225,0.0,0.0,80,0.00,,,0.00,WSDL version 420,2013-07-30 05:55:00,
2013-07-30 02:01:00,59.1,52.9,29.35,SW,225,0.0,0.0,80,0.00,,,0.00,WSDL version 420,2013-07-30 06:01:00,
2013-07-30 02:08:00,58.9,53.1,29.35,SW,225,0.0,0.0,81,0.00,,,0.00,WSDL version 420,2013-07-30 06:08:00,
2013-07-30 02:14:00,58.7,53.1,29.35,SW,225,0.0,0.0,82,0.00,,,0.00,WSDL version 420,2013-07-30 06:14:00,
2013-07-30 02:20:00,58.5,53.1,-100.00,SW,225,0.0,0.0,82,0.00,,,0.00,WSDL version 420,2013-07-30 06:20:00,
2013-07-30 02:26:00,58.3,52.9,-100.00,SW,225,0.0,0.0,82,0.00,,,0.00,WSDL version 420,2013-07-30 06:26:00,
2013-07-30 02:40:00,58.1,53.1,-100.00,SW,225,0.0,0.0,83,0.00,,,0.00,WSDL version 420,2013-07-30 06:40:00,
2013-07-30 02:46:00,58.1,53.1,-100.00,SW,225,0.0,0.0,83,0.00,,,0.00,WSDL version 420,2013-07-30 06:46:00,
2013-07-30 02:53:00,57.9,52.9,29.35,SW,225,0.0,0.0,83,0.00,,,0.00,WSDL version 420,2013-07-30 06:53:00,
2013-07-30 02:59:00,57.9,53.1,29.32,SW,225,0.0,0.0,84,0.00,,,0.00,WSDL version 420,2013-07-30 06:59:00,
2013-07-30 03:05:00,57.7,53.1,29.32,SW,225,0.0,0.0,84,0.00,,,0.00,WSDL version 420,2013-07-30 07:05:00,
2013-07-30 03:11:00,57.6,52.7,29.35,SW,225,0.0,0.0,84,0.00,,,0.00,WSDL version 420,2013-07-30 07:11:00,
2013-07-30 03:19:00,57.3,52.6,-100.00,SW,225,0.0,0.0,84,0.00,,,0.00,WSDL version 420,2013-07-30 07:19:00,
2013-07-30 03:25:00,57.2,52.6,-100.00,SW,225,0.0,0.0,84,0.00,,,0.00,WSDL version 420,2013-07-30 07:25:00,
2013-07-30 03:32:00,57.0,52.7,29.35,SW,225,0.0,0.0,86,0.00,,,0.00,WSDL version 420,2013-07-30 07:32:00,
2013-07-30 03:57:00,56.8,52.9,-100.00,SW,225,0.0,0.0,87,0.00,,,0.00,WSDL version 420,2013-07-30 07:57:00,
2013-07-30 04:07:00,57.0,53.4,-100.00,SW,225,0.0,0.0,88,-99.99,,,-99.99,WSDL version 420,2013-07-30 08:07:00,
2013-07-30 04:15:00,57.0,53.4,29.35,SW,225,0.0,0.0,88,0.00,,,0.00,WSDL version 420,2013-07-30 08:15:00,
2013-07-30 04:21:00,57.0,53.4,29.35,SW,225,0.0,0.0,88,0.00,,,0.00,WSDL version 420,2013-07-30 08:21:00,
2013-07-30 04:28:00,56.8,53.6,-100.00,SW,225,0.0,0.0,89,0.00,,,0.00,WSDL version 420,2013-07-30 08:28:00,
2013-07-30 04:35:00,56.8,53.6,-100.00,SW,225,0.0,0.0,89,0.00,,,0.00,WSDL version 420,2013-07-30 08:35:00,
2013-07-30 04:42:00,56.8,53.3,29.35,SW,225,0.0,0.0,88,0.00,,,0.00,WSDL version 420,2013-07-30 08:42:00,
2013-07-30 04:47:00,56.8,53.5,29.35,SW,225,0.0,0.0,89,0.00,,,0.00,WSDL version 420,2013-07-30 08:47:00,
2013-07-30 04:55:00,56.8,53.8,29.35,SW,225,0.0,0.0,90,0.00,,,0.00,WSDL version 420,2013-07-30 08:55:00,
2013-07-30 05:01:00,56.8,53.8,29.35,SW,225,0.0,0.0,89,0.00,,,0.00,WSDL version 420,2013-07-30 09:01:00,
2013-07-30 05:07:00,56.7,53.4,29.35,SW,225,0.0,0.0,89,0.00,,,0.00,WSDL version 420,2013-07-30 09:07:00,
2013-07-30 05:13:00,56.5,53.2,29.35,SW,225,0.0,0.0,89,-99.99,,,-99.99,WSDL version 420,2013-07-30 09:13:00,
2013-07-30 05:20:00,56.4,53.3,-100.00,SW,225,0.0,0.0,89,0.00,,,0.00,WSDL version 420,2013-07-30 09:20:00,
2013-07-30 05:27:00,56.3,53.2,-100.00,SW,225,0.0,0.0,90,0.00,,,0.00,WSDL version 420,2013-07-30 09:27:00,
2013-07-30 05:32:00,56.2,53.3,-100.00,SW,225,0.0,0.0,90,0.00,,,0.00,WSDL version 420,2013-07-30 09:32:00,
2013-07-30 05:38:00,56.1,53.2,-100.00,SW,225,0.0,0.0,90,0.00,,,0.00,WSDL version 420,2013-07-30 09:38:00,
2013-07-30 05:46:00,55.9,53.1,29.35,SW,225,0.0,0.0,90,0.00,,,0.00,WSDL version 420,2013-07-30 09:46:00,
2013-07-30 05:52:00,55.9,53.1,-100.00,SW,225,0.0,0.0,90,0.00,,,0.00,WSDL version 420,2013-07-30 09:52:00,
2013-07-30 05:59:00,55.9,53.0,-100.00,SW,225,0.0,0.0,90,-99.99,,,-99.99,WSDL version 420,2013-07-30 09:59:00,
2013-07-30 06:05:00,56.0,53.4,-100.00,SW,225,0.0,0.0,91,0.00,,,0.00,WSDL version 420,2013-07-30 10:05:00,
2013-07-30 06:14:00,56.5,54.3,29.35,SW,225,0.0,0.0,92,-99.99,,,-99.99,WSDL version 420,2013-07-30 10:14:00,
2013-07-30 06:21:00,56.7,54.4,-100.00,SW,225,0.0,0.0,92,0.00,,,0.00,WSDL version 420,2013-07-30 10:21:00,
2013-07-30 06:28:00,56.9,54.7,-100.00,SW,225,0.0,0.0,92,0.00,,,0.00,WSDL version 420,2013-07-30 10:28:00,
2013-07-30 06:33:00,57.3,55.2,-100.00,SW,225,0.0,0.0,93,0.00,,,0.00,WSDL version 420,2013-07-30 10:33:00,
2013-07-30 06:41:00,57.7,55.7,-100.00,SW,225,0.0,0.0,93,0.00,,,0.00,WSDL version 420,2013-07-30 10:41:00,
2013-07-30 06:54:00,58.6,56.7,29.35,SW,225,0.0,0.0,93,0.00,,,0.00,WSDL version 420,2013-07-30 10:54:00,
2013-07-30 07:02:00,59.1,56.8,-100.00,South,180,0.0,0.0,92,0.00,,,0.00,WSDL version 420,2013-07-30 11:02:00,
2013-07-30 07:07:00,59.4,57.1,29.35,SSW,203,0.0,0.0,92,0.00,,,0.00,WSDL version 420,2013-07-30 11:07:00,
2013-07-30 07:17:00,60.1,57.5,29.38,SW,225,0.0,0.0,91,0.00,,,0.00,WSDL version 420,2013-07-30 11:17:00,
2013-07-30 07:28:00,60.6,57.7,-100.00,North,0,0.0,0.0,90,0.00,,,0.00,WSDL version 420,2013-07-30 11:28:00,
2013-07-30 07:34:00,60.9,57.8,29.38,SW,225,0.0,0.0,89,-99.99,,,-99.99,WSDL version 420,2013-07-30 11:34:00,
2013-07-30 07:41:00,61.4,58.1,29.38,North,0,0.0,0.0,89,-99.99,,,-99.99,WSDL version 420,2013-07-30 11:41:00,
2013-07-30 07:47:00,62.1,58.4,-100.00,SSW,203,0.0,0.0,88,0.00,,,0.00,WSDL version 420,2013-07-30 11:47:00,
2013-07-30 07:53:00,62.6,58.6,-100.00,SSW,203,0.0,0.0,87,0.00,,,0.00,WSDL version 420,2013-07-30 11:53:00,
2013-07-30 08:04:00,63.9,58.7,29.38,North,0,0.0,0.0,83,0.00,,,0.00,WSDL version 420,2013-07-30 12:04:00,
2013-07-30 08:09:00,63.6,57.7,29.35,SW,214,0.0,0.0,80,0.00,,,0.00,WSDL version 420,2013-07-30 12:09:00,
2013-07-30 08:15:00,63.3,56.9,-100.00,SSW,203,0.0,0.0,80,0.00,,,0.00,WSDL version 420,2013-07-30 12:15:00,
2013-07-30 08:23:00,64.0,57.3,-100.00,SSW,203,0.0,0.0,79,0.00,,,0.00,WSDL version 420,2013-07-30 12:23:00,
2013-07-30 08:30:00,64.8,57.7,29.38,SW,225,0.0,0.0,78,0.00,,,0.00,WSDL version 420,2013-07-30 12:30:00,
2013-07-30 08:36:00,65.2,57.5,-100.00,SW,225,0.0,0.0,75,0.00,,,0.00,WSDL version 420,2013-07-30 12:36:00,
2013-07-30 08:43:00,65.6,57.3,29.38,SSW,206,0.0,0.0,74,0.00,,,0.00,WSDL version 420,2013-07-30 12:43:00,
2013-07-30 08:49:00,65.9,57.2,29.38,SW,225,0.0,0.0,73,-99.99,,,-99.99,WSDL version 420,2013-07-30 12:49:00,
2013-07-30 08:56:00,66.3,57.0,29.38,SSW,203,0.0,0.0,72,-99.99,,,-99.99,WSDL version 420,2013-07-30 12:56:00,
2013-07-30 09:02:00,66.7,57.2,29.38,SSW,210,0.0,0.0,71,0.00,,,0.00,WSDL version 420,2013-07-30 13:02:00,
2013-07-30 09:08:00,67.0,56.7,29.38,NNW,338,0.0,0.0,69,0.00,,,0.00,WSDL version 420,2013-07-30 13:08:00,
2013-07-30 09:19:00,67.6,55.9,29.38,NNW,333,0.0,0.0,66,0.00,,,0.00,WSDL version 420,2013-07-30 13:19:00,
2013-07-30 09:25:00,67.7,55.7,29.38,NNW,338,0.0,0.0,65,0.00,,,0.00,WSDL version 420,2013-07-30 13:25:00,
2013-07-30 09:32:00,67.9,55.1,29.38,North,360,0.0,0.0,63,0.00,,,0.00,WSDL version 420,2013-07-30 13:32:00,
2013-07-30 09:38:00,68.1,54.8,29.38,NNW,347,0.0,0.0,62,0.00,,,0.00,WSDL version 420,2013-07-30 13:38:00,
2013-07-30 09:52:00,69.3,55.3,-100.00,North,0,0.0,0.0,61,0.00,,,0.00,WSDL version 420,2013-07-30 13:52:00,
2013-07-30 09:59:00,69.7,53.5,29.38,NNW,343,0.0,0.0,56,0.00,,,0.00,WSDL version 420,2013-07-30 13:59:00,
2013-07-30 10:05:00,70.5,53.7,29.38,WNW,284,0.0,0.0,55,0.00,,,0.00,WSDL version 420,2013-07-30 14:05:00,
2013-07-30 10:12:00,71.2,53.2,29.38,North,360,0.0,0.0,52,0.00,,,0.00,WSDL version 420,2013-07-30 14:12:00,
2013-07-30 10:18:00,72.8,54.1,29.38,NE,45,0.0,0.0,52,0.00,,,0.00,WSDL version 420,2013-07-30 14:18:00,
2013-07-30 10:25:00,75.1,54.4,-100.00,North,360,0.0,0.0,48,-99.99,,,-99.99,WSDL version 420,2013-07-30 14:25:00,
2013-07-30 10:31:00,75.5,52.6,-100.00,WSW,242,0.0,0.0,43,0.00,,,0.00,WSDL version 420,2013-07-30 14:31:00,
2013-07-30 10:42:00,78.1,54.4,29.38,SSE,163,0.0,0.0,44,-99.99,,,-99.99,WSDL version 420,2013-07-30 14:42:00,
2013-07-30 10:48:00,79.1,54.4,-100.00,East,90,0.0,0.0,42,0.00,,,0.00,WSDL version 420,2013-07-30 14:48:00,
2013-07-30 10:54:00,80.4,53.0,-100.00,NNW,338,0.0,0.0,38,0.00,,,0.00,WSDL version 420,2013-07-30 14:54:00,
2013-07-30 10:59:00,81.2,53.9,-100.00,NNE,27,0.0,0.0,39,0.00,,,0.00,WSDL version 420,2013-07-30 14:59:00,
2013-07-30 11:07:00,81.1,51.6,-100.00,North,360,0.0,0.0,35,0.00,,,0.00,WSDL version 420,2013-07-30 15:07:00,
2013-07-30 11:15:00,81.7,52.5,-100.00,NNW,338,0.0,0.0,36,0.00,,,0.00,WSDL version 420,2013-07-30 15:15:00,
2013-07-30 11:20:00,81.3,51.1,29.35,SSW,203,0.0,0.0,35,-99.99,,,-99.99,WSDL version 420,2013-07-30 15:20:00,
2013-07-30 11:27:00,79.9,51.3,29.35,SSW,203,0.0,0.0,37,0.00,,,0.00,WSDL version 420,2013-07-30 15:27:00,
2013-07-30 11:32:00,80.8,52.1,29.35,NW,304,0.0,0.0,37,0.00,,,0.00,WSDL version 420,2013-07-30 15:32:00,
2013-07-30 11:40:00,82.4,52.5,29.38,NNE,23,0.0,0.0,35,0.00,,,0.00,WSDL version 420,2013-07-30 15:40:00,
2013-07-30 11:46:00,82.9,51.4,29.38,WSW,248,0.0,0.0,33,0.00,,,0.00,WSDL version 420,2013-07-30 15:46:00,
2013-07-30 11:52:00,83.0,49.9,29.38,NNW,329,0.0,0.0,31,0.00,,,0.00,WSDL version 420,2013-07-30 15:52:00,
2013-07-30 11:58:00,82.9,50.0,29.38,NNW,345,0.0,0.0,33,0.00,,,0.00,WSDL version 420,2013-07-30 15:58:00,
2013-07-30 12:04:00,84.2,51.2,29.38,North,11,0.4,1.6,32,0.00,,,0.00,WSDL version 420,2013-07-30 16:04:00,
2013-07-30 12:10:00,84.7,51.1,-100.00,NW,306,0.0,1.6,31,0.00,,,0.00,WSDL version 420,2013-07-30 16:10:00,
2013-07-30 12:19:00,84.6,49.8,-100.00,NNW,329,0.0,3.6,30,-99.99,,,-99.99,WSDL version 420,2013-07-30 16:19:00,
2013-07-30 12:24:00,84.6,49.8,29.38,NNW,338,1.4,3.6,30,0.00,,,0.00,WSDL version 420,2013-07-30 16:24:00,
2013-07-30 12:30:00,86.1,51.3,29.38,North,349,1.7,3.6,30,0.00,,,0.00,WSDL version 420,2013-07-30 16:30:00,
2013-07-30 12:36:00,86.0,50.1,29.38,North,350,0.7,3.1,29,0.00,,,0.00,WSDL version 420,2013-07-30 16:36:00,
2013-07-30 12:41:00,83.9,49.2,29.41,NNE,27,0.0,2.5,30,0.00,,,0.00,WSDL version 420,2013-07-30 16:41:00,
2013-07-30 12:47:00,81.0,47.2,-100.00,North,351,0.0,0.0,31,-99.99,,,-99.99,WSDL version 420,2013-07-30 16:47:00,
2013-07-30 12:53:00,78.8,47.3,29.41,North,5,0.0,0.0,34,0.00,,,0.00,WSDL version 420,2013-07-30 16:53:00,
2013-07-30 12:59:00,79.2,47.6,29.38,NNW,343,0.0,0.0,33,-99.99,,,-99.99,WSDL version 420,2013-07-30 16:59:00,
2013-07-30 13:05:00,81.1,49.3,-100.00,North,349,0.0,0.0,33,0.00,,,0.00,WSDL version 420,2013-07-30 17:05:00,
2013-07-30 13:11:00,83.5,50.7,29.38,NNW,329,0.0,0.0,32,0.00,,,0.00,WSDL version 420,2013-07-30 17:11:00,
2013-07-30 13:18:00,84.9,50.9,29.38,NNE,28,0.0,0.0,31,0.00,,,0.00,WSDL version 420,2013-07-30 17:18:00,
2013-07-30 13:23:00,84.3,50.1,-100.00,NNW,338,0.0,0.0,30,0.00,,,0.00,WSDL version 420,2013-07-30 17:23:00,
2013-07-30 13:29:00,85.1,50.6,29.38,WSW,243,0.0,0.0,31,0.00,,,0.00,WSDL version 420,2013-07-30 17:29:00,
2013-07-30 13:36:00,82.4,48.8,29.38,North,360,0.0,0.0,31,0.00,,,0.00,WSDL version 420,2013-07-30 17:36:00,
2013-07-30 13:42:00,80.9,47.4,-100.00,North,349,0.0,0.0,31,0.00,,,0.00,WSDL version 420,2013-07-30 17:42:00,
2013-07-30 13:48:00,81.1,48.5,-100.00,NNW,347,0.0,0.0,32,0.00,,,0.00,WSDL version 420,2013-07-30 17:48:00,
2013-07-30 13:55:00,80.8,48.2,-100.00,NNW,347,0.0,0.0,32,0.00,,,0.00,WSDL version 420,2013-07-30 17:55:00,
2013-07-30 14:01:00,81.1,48.4,29.38,East,90,0.0,0.0,32,0.00,,,0.00,WSDL version 420,2013-07-30 18:01:00,
2013-07-30 14:07:00,82.2,50.2,29.38,North,5,0.0,0.0,33,0.00,,,0.00,WSDL version 420,2013-07-30 18:07:00,
2013-07-30 14:13:00,81.7,49.6,-100.00,NNW,338,0.0,0.0,32,0.00,,,0.00,WSDL version 420,2013-07-30 18:13:00,
2013-07-30 14:20:00,80.5,48.5,29.35,NNW,347,0.0,0.0,33,0.00,,,0.00,WSDL version 420,2013-07-30 18:20:00,
2013-07-30 14:26:00,79.1,47.0,-100.00,North,351,0.0,0.0,33,0.00,,,0.00,WSDL version 420,2013-07-30 18:26:00,
2013-07-30 14:32:00,78.7,47.6,-100.00,NNW,347,0.0,0.0,34,0.00,,,0.00,WSDL version 420,2013-07-30 18:32:00,
2013-07-30 14:38:00,77.5,47.0,29.35,NW,320,0.0,0.0,34,0.00,,,0.00,WSDL version 420,2013-07-30 18:38:00,
2013-07-30 14:44:00,77.8,47.6,-100.00,North,353,0.0,0.0,35,0.00,,,0.00,WSDL version 420,2013-07-30 18:44:00,
2013-07-30 14:54:00,77.1,47.4,-100.00,NW,312,0.0,0.0,35,0.00,,,0.00,WSDL version 420,2013-07-30 18:54:00,
2013-07-30 15:00:00,77.0,47.7,29.35,North,349,0.0,0.0,35,-99.99,,,-99.99,WSDL version 420,2013-07-30 19:00:00,
2013-07-30 15:11:00,77.5,49.2,-100.00,SSE,158,0.0,0.0,37,0.00,,,0.00,WSDL version 420,2013-07-30 19:11:00,
2013-07-30 15:16:00,77.8,49.8,29.35,North,360,0.0,0.0,38,0.00,,,0.00,WSDL version 420,2013-07-30 19:16:00,
2013-07-30 15:31:00,77.5,49.2,29.35,WNW,287,0.0,0.0,37,0.00,,,0.00,WSDL version 420,2013-07-30 19:31:00,
2013-07-30 15:37:00,77.7,49.5,29.35,SSW,203,0.0,0.0,37,0.00,,,0.00,WSDL version 420,2013-07-30 19:37:00,
2013-07-30 15:49:00,78.4,49.3,29.35,NNW,347,0.0,0.0,36,0.00,,,0.00,WSDL version 420,2013-07-30 19:49:00,
2013-07-30 15:55:00,78.4,48.6,-100.00,North,351,0.0,0.0,35,0.00,,,0.00,WSDL version 420,2013-07-30 19:55:00,
2013-07-30 16:01:00,78.5,49.1,29.35,North,349,0.0,0.0,36,0.00,,,0.00,WSDL version 420,2013-07-30 20:01:00,
2013-07-30 16:07:00,78.5,49.4,29.35,NNW,334,0.0,0.0,36,0.00,,,0.00,WSDL version 420,2013-07-30 20:07:00,
2013-07-30 16:14:00,77.9,48.8,29.35,NNE,18,0.0,0.0,36,-99.99,,,-99.99,WSDL version 420,2013-07-30 20:14:00,
2013-07-30 16:25:00,77.2,48.9,-100.00,North,351,0.0,0.0,37,0.00,,,0.00,WSDL version 420,2013-07-30 20:25:00,
2013-07-30 16:32:00,76.7,48.5,29.35,North,351,0.0,0.0,37,0.00,,,0.00,WSDL version 420,2013-07-30 20:32:00,
2013-07-30 16:38:00,76.3,49.2,29.35,NNE,19,0.0,0.0,39,0.00,,,0.00,WSDL version 420,2013-07-30 20:38:00,
2013-07-30 16:44:00,76.3,49.3,29.35,NNW,345,0.0,0.0,39,0.00,,,0.00,WSDL version 420,2013-07-30 20:44:00,
2013-07-30 16:54:00,76.5,49.7,29.35,North,350,0.0,0.0,39,-99.99,,,-99.99,WSDL version 420,2013-07-30 20:54:00,
2013-07-30 17:00:00,76.3,48.4,29.35,NNW,338,0.0,0.0,38,0.00,,,0.00,WSDL version 420,2013-07-30 21:00:00,
2013-07-30 17:06:00,76.3,48.9,-100.00,North,351,0.0,0.0,38,0.00,,,0.00,WSDL version 420,2013-07-30 21:06:00,
2013-07-30 17:13:00,76.4,49.6,-100.00,NNW,331,0.0,0.0,39,0.00,,,0.00,WSDL version 420,2013-07-30 21:13:00,
2013-07-30 17:25:00,75.9,49.2,-100.00,NNW,338,0.0,0.0,39,0.00,,,0.00,WSDL version 420,2013-07-30 21:25:00,
2013-07-30 17:31:00,75.7,49.0,29.35,NNW,338,0.0,0.0,39,0.00,,,0.00,WSDL version 420,2013-07-30 21:31:00,
2013-07-30 17:40:00,74.9,49.0,-100.00,North,350,0.0,0.0,40,0.00,,,0.00,WSDL version 420,2013-07-30 21:40:00,
2013-07-30 17:46:00,74.7,49.2,29.35,NNW,334,0.0,0.0,40,0.00,,,0.00,WSDL version 420,2013-07-30 21:46:00,
2013-07-30 17:52:00,74.5,49.3,-100.00,NNW,341,0.0,0.0,41,0.00,,,0.00,WSDL version 420,2013-07-30 21:52:00,
2013-07-30 17:59:00,74.7,49.4,29.35,ESE,104,0.0,0.0,41,0.00,,,0.00,WSDL version 420,2013-07-30 21:59:00,
2013-07-30 18:07:00,74.8,50.2,29.35,South,177,0.0,0.0,42,0.00,,,0.00,WSDL version 420,2013-07-30 22:07:00,
2013-07-30 18:13:00,74.7,50.1,-100.00,SSW,193,0.0,0.0,42,0.00,,,0.00,WSDL version 420,2013-07-30 22:13:00,
2013-07-30 18:24:00,73.9,49.4,29.35,NNW,338,0.0,0.0,42,-99.99,,,-99.99,WSDL version 420,2013-07-30 22:24:00,
2013-07-30 18:30:00,73.8,49.2,-100.00,NNW,344,0.0,0.0,42,0.00,,,0.00,WSDL version 420,2013-07-30 22:30:00,
2013-07-30 18:38:00,73.8,49.3,29.35,NNW,341,0.0,0.0,42,0.00,,,0.00,WSDL version 420,2013-07-30 22:38:00,
2013-07-30 18:47:00,73.8,49.3,29.35,NNW,329,0.0,0.0,42,0.00,,,0.00,WSDL version 420,2013-07-30 22:47:00,
2013-07-30 18:53:00,73.6,49.7,29.35,North,349,0.0,0.0,43,0.00,,,0.00,WSDL version 420,2013-07-30 22:53:00,
2013-07-30 19:11:00,73.2,50.0,-100.00,North,357,0.0,0.0,44,0.00,,,0.00,WSDL version 420,2013-07-30 23:11:00,
2013-07-30 19:17:00,73.0,49.9,29.35,NNW,338,0.0,0.0,44,0.00,,,0.00,WSDL version 420,2013-07-30 23:17:00,
2013-07-30 19:35:00,72.1,49.7,-100.00,NNW,342,0.0,0.0,45,0.00,,,0.00,WSDL version 420,2013-07-30 23:35:00,
2013-07-30 19:40:00,71.8,49.3,29.35,NNW,341,0.0,0.0,45,0.00,,,0.00,WSDL version 420,2013-07-30 23:40:00,
2013-07-30 19:47:00,71.5,49.3,29.35,NNW,338,0.0,0.0,46,0.00,,,0.00,WSDL version 420,2013-07-30 23:47:00,
2013-07-30 19:53:00,71.2,49.4,-100.00,NNW,338,0.0,0.0,46,0.00,,,0.00,WSDL version 420,2013-07-30 23:53:00,
2013-07-30 20:20:00,69.4,50.5,-100.00,West,270,0.0,0.0,51,0.00,,,0.00,WSDL version 420,2013-07-31 00:20:00,
2013-07-30 20:27:00,69.1,50.7,29.32,West,270,0.0,0.0,52,-99.99,,,-99.99,WSDL version 420,2013-07-31 00:27:00,
2013-07-30 20:33:00,68.8,50.8,29.32,West,270,0.0,0.0,53,0.00,,,0.00,WSDL version 420,2013-07-31 00:33:00,
2013-07-30 20:40:00,68.4,51.1,29.32,West,270,0.0,0.0,54,0.00,,,0.00,WSDL version 420,2013-07-31 00:40:00,
2013-07-30 20:46:00,68.2,51.5,29.32,West,275,0.0,0.0,56,0.00,,,0.00,WSDL version 420,2013-07-31 00:46:00,
2013-07-30 20:52:00,67.8,52.2,-100.00,ENE,68,0.0,0.0,58,0.00,,,0.00,WSDL version 420,2013-07-31 00:52:00,
2013-07-30 21:02:00,67.1,52.8,29.35,ENE,68,0.0,0.0,60,0.00,,,0.00,WSDL version 420,2013-07-31 01:02:00,
2013-07-30 21:08:00,66.8,52.9,-100.00,ENE,68,0.0,0.0,61,0.00,,,0.00,WSDL version 420,2013-07-31 01:08:00,
2013-07-30 21:18:00,66.2,53.2,29.35,ENE,68,0.0,0.0,63,0.00,,,0.00,WSDL version 420,2013-07-31 01:18:00,
2013-07-30 21:24:00,66.0,53.5,29.35,ENE,68,0.0,0.0,64,0.00,,,0.00,WSDL version 420,2013-07-31 01:24:00,
2013-07-30 21:30:00,65.8,53.3,29.35,ENE,68,0.0,0.0,64,0.00,,,0.00,WSDL version 420,2013-07-31 01:30:00,
2013-07-30 21:41:00,64.9,53.3,-100.00,ENE,68,0.0,0.0,66,0.00,,,0.00,WSDL version 420,2013-07-31 01:41:00,
2013-07-30 21:47:00,64.7,53.5,29.35,ENE,68,0.0,0.0,67,0.00,,,0.00,WSDL version 420,2013-07-31 01:47:00,
2013-07-30 21:54:00,64.4,53.6,29.35,ENE,68,0.0,0.0,68,0.00,,,0.00,WSDL version 420,2013-07-31 01:54:00,
2013-07-30 22:00:00,64.4,53.7,-100.00,ENE,68,0.0,0.0,68,0.00,,,0.00,WSDL version 420,2013-07-31 02:00:00,
2013-07-30 22:06:00,64.0,53.7,-100.00,ENE,68,0.0,0.0,69,-99.99,,,-99.99,WSDL version 420,2013-07-31 02:06:00,
2013-07-30 22:12:00,63.9,53.5,29.35,ENE,68,0.0,0.0,69,0.00,,,0.00,WSDL version 420,2013-07-31 02:12:00,
2013-07-30 22:20:00,63.1,53.2,29.35,ENE,68,0.0,0.0,70,0.00,,,0.00,WSDL version 420,2013-07-31 02:20:00,
2013-07-30 22:27:00,63.0,53.6,-100.00,ENE,68,0.0,0.0,72,0.00,,,0.00,WSDL version 420,2013-07-31 02:27:00,
2013-07-30 22:33:00,62.8,53.2,29.35,ENE,68,0.0,0.0,71,0.00,,,0.00,WSDL version 420,2013-07-31 02:33:00,
2013-07-30 22:41:00,62.4,53.7,29.35,ENE,68,0.0,0.0,73,0.00,,,0.00,WSDL version 420,2013-07-31 02:41:00,
2013-07-30 22:47:00,62.2,53.5,29.35,ENE,68,0.0,0.0,73,0.00,,,0.00,WSDL version 420,2013-07-31 02:47:00,
2013-07-30 22:53:00,62.0,53.6,29.35,ENE,68,0.0,0.0,74,0.00,,,0.00,WSDL version 420,2013-07-31 02:53:00,
2013-07-30 22:59:00,61.9,53.5,29.35,ENE,68,0.0,0.0,74,0.00,,,0.00,WSDL version 420,2013-07-31 02:59:00,
2013-07-30 23:09:00,61.3,53.0,29.35,ENE,68,0.0,0.0,74,0.00,,,0.00,WSDL version 420,2013-07-31 03:09:00,
2013-07-30 23:15:00,61.0,53.1,-100.00,ENE,68,0.0,0.0,75,0.00,,,0.00,WSDL version 420,2013-07-31 03:15:00,
2013-07-30 23:21:00,61.0,53.4,29.35,ENE,68,0.0,0.0,76,0.00,,,0.00,WSDL version 420,2013-07-31 03:21:00,
2013-07-30 23:28:00,61.2,53.5,29.35,ENE,68,0.0,0.0,76,0.00,,,0.00,WSDL version 420,2013-07-31 03:28:00,
2013-07-30 23:40:00,61.3,54.4,29.35,ENE,68,0.0,0.0,78,0.00,,,0.00,WSDL version 420,2013-07-31 03:40:00,
2013-07-30 23:47:00,61.2,54.3,29.35,ENE,68,0.0,0.0,78,0.00,,,0.00,WSDL version 420,2013-07-31 03:47:00,
2013-07-30 23:54:00,61.0,54.1,29.35,ENE,68,0.0,0.0,78,0.00,,,0.00,WSDL version 420,2013-07-31 03:54:00,